Main page
METAR-TAF:

METAR-TAF

Airports :

International Airport Irkutsk

Irkutsk, Russia

latitude: 52-16N, longitude: 104-19E, elevation: 513 m

Current weather observation

The report was made 26 minutes ago, at 23:00 UTC
Wind 4 kt from the East
Temperature -14°C
Humidity 85%
Pressure 1019 hPa
Visibility 10 km or more
no clouds below 1500 m and no cumulonimbus

METAR: UIII 212300Z 09002MPS CAVOK M14/M16 Q1019 R12/810550 NOSIG RMK QFE722/0963

Time: 07:26 (23:26 UTC)

Forecast

The report was made 3 hours and 26 minutes ago, at 20:00 UTC
Forecast valid from 21 at 21 UTC to 22 at 21 UTC
Wind 6 kt from the East/Northeast
Visibility 10 km or more
Temporary
from 21 at 21 UTC to 22 at 03 UTC
Visibility: 0900 m
at a height of 100 ft
freezing fog, smoke

TAF: UIII 212000Z 2121/2221 06003MPS 9999 NSC TEMPO 2121/2203 0900 FZFG FU VV001

Weather observations and forecasts of more than 4000 airports (METAR and TAF reports).

The available stations are represented by yellow and red dots on the map.

Hover mouse over dot to see the name of the station.

Then click to see weather observations and forecasts.

To change the map : click on the green buttons with a black cross to zoom in, on the green button with a dash to zoom out, or on the green arrows for adjacent maps.


METAR-TAF: